Kingsbury, Indiana
Current Conditions -  °F | °C
As of 4:15 PM on Friday 31 Oct 2014 (Local Time) from KPPO Reporting Station
Drizzle Drizzle  
Wind Chill: 27°   Ceiling: 1600
Heat Index: 36°   Visibility: 10mi
Dew Point: 36°   Wind: 15mph
Humidity: 100%   Direction: 20°NNE
Pressure: 30.12"   Gusts: 22mph
Location:  41.53°N, 86.7°W
Report Text: KPPO 312115Z AUTO 02013G19KT 10SM -DZ SCT007 BKN016 OVC050 02/02 A3012 RMK AO2 T00220022
Loading
Personal Weather Stations






























Interactive Weather Map
Tropical Storm Tracking
New forecast layout! Learn more

10-Day Weather Forecast

Advertisements
Track Severe Weather on mobile